Terminal Aerodrome Forecast
Issued by NWS Cleveland, OH

Home | Current Version | Previous Version | Graphics & Text | Print | Product List | Glossary On
Versions: 1 2 3 4 5 6 7 8 9 10 11 12 13 14 15
000
FTUS41 KCLE 191700
TAFCAK
TAF
KCAK 191720Z 1918/2018 18014G24KT P6SM -SN OVC045
      TEMPO 1918/1921 4SM -SN BR OVC025
     FM200000 21015G25KT 6SM -SN BR OVC035
      TEMPO 2000/2004 3SM -SN BR OVC015
     FM200400 24014G22KT P6SM -SN OVC025
     FM201400 24012G20KT P6SM SCT025 BKN050=

USA.gov is the U.S. government's official web portal to all federal, state and local government web resources and services.